KOUN/OUN METAR and TAF weather

Enter ICAO airport designator
Station Type Date Time Source
KOUN METAR 2019/12/11 11:55 UTC NOAA

KOUN 111155Z AUTO 18007KT 10SM CLR M03/M06 A3041 RMK AO2 T10271059 10004 21030


Station Type Date Time Source
KOUN Decoded METAR 2019/12/11 11:55 UTC NOAA

Norman / Max Westheimer, OK, United States (KOUN) 35-13N 097-27W 357M
Dec 11, 2019 - 06:55 AM EST / 2019.12.11 1155 UTC
Wind: from the S (180 degrees) at 8 MPH (7 KT):0
Visibility: 10 mile(s):0
Sky conditions: clear
Temperature: 27.1 F (-2.7 C)
Windchill: 19 F (-7 C):1
Dew Point: 21.4 F (-5.9 C)
Relative Humidity: 78%
Pressure (altimeter): 30.41 in. Hg (1029 hPa)
ob: KOUN 111155Z AUTO 18007KT 10SM CLR M03/M06 A3041 RMK AO2 T10271059 10004 21030
cycle: 12

Station Type Date Time Source
KOUN TAF 2019/12/11 12:03 UTC NOAA

TAF KOUN 111201Z 1112/1212 18007KT P6SM SKC
FM111500 18013KT P6SM SCT250

Example: see airport list